createdAt,value
2023-04-13T00:00:17.069Z,91.30
2023-04-13T00:02:45.642Z,91.20
2023-04-13T00:05:13.918Z,91.30
2023-04-13T00:07:41.432Z,91.50
2023-04-13T00:10:10.558Z,91.60
2023-04-13T00:12:39.444Z,91.40
2023-04-13T00:15:07.463Z,91.20
2023-04-13T00:17:34.750Z,91.00
2023-04-13T00:20:08.516Z,90.90
2023-04-13T00:22:37.257Z,90.90
2023-04-13T00:25:04.781Z,90.60
2023-04-13T00:27:32.349Z,90.90
2023-04-13T00:29:59.668Z,91.00
2023-04-13T00:32:27.013Z,90.70
2023-04-13T00:34:54.311Z,90.80
2023-04-13T00:37:21.838Z,91.00
2023-04-13T00:39:49.625Z,90.60
2023-04-13T00:42:19.860Z,90.60
2023-04-13T00:44:47.692Z,90.60
2023-04-13T00:47:20.036Z,90.70
2023-04-13T00:49:47.662Z,91.00
2023-04-13T00:52:16.328Z,91.20
2023-04-13T00:54:43.694Z,91.20
2023-04-13T00:57:11.755Z,91.10
2023-04-13T00:59:39.750Z,91.30
2023-04-13T01:02:08.020Z,91.30
2023-04-13T01:04:35.682Z,91.10
2023-04-13T01:07:13.367Z,91.00
2023-04-13T01:10:10.690Z,90.20
2023-04-13T01:12:46.275Z,89.90
2023-04-13T01:15:16.976Z,89.70
2023-04-13T01:17:54.281Z,89.00
2023-04-13T01:20:22.827Z,89.00
2023-04-13T01:23:02.581Z,87.90
2023-04-13T01:25:41.103Z,87.20
2023-04-13T01:28:16.391Z,86.30
2023-04-13T01:30:45.003Z,85.40
2023-04-13T01:33:14.319Z,84.80
2023-04-13T01:35:42.634Z,84.60
2023-04-13T01:38:10.486Z,84.70
2023-04-13T01:40:41.315Z,85.00
2023-04-13T01:43:08.944Z,84.60
2023-04-13T01:45:55.698Z,84.50
2023-04-13T01:48:30.285Z,84.60
2023-04-13T01:51:25.578Z,85.10
2023-04-13T01:54:02.239Z,85.80
2023-04-13T01:56:30.255Z,86.30
2023-04-13T01:58:59.077Z,86.90
2023-04-13T02:01:27.140Z,87.30
2023-04-13T02:03:55.048Z,87.80
2023-04-13T02:06:22.510Z,88.00
2023-04-13T02:08:52.395Z,88.20
2023-04-13T02:11:20.100Z,88.10
2023-04-13T02:13:48.368Z,88.20
2023-04-13T02:16:16.118Z,88.30
2023-04-13T02:18:43.942Z,87.80
2023-04-13T02:21:11.599Z,87.30
2023-04-13T02:23:41.035Z,87.50
2023-04-13T02:26:09.270Z,87.50
2023-04-13T02:28:36.567Z,88.00
2023-04-13T02:31:04.062Z,88.60
2023-04-13T02:33:32.570Z,89.40
2023-04-13T02:36:02.476Z,90.40
2023-04-13T02:38:29.878Z,90.80
2023-04-13T02:41:02.248Z,90.80
2023-04-13T02:43:29.675Z,91.10
2023-04-13T02:45:57.765Z,91.50
2023-04-13T02:48:25.966Z,92.00
2023-04-13T02:50:54.522Z,92.20
2023-04-13T02:53:22.432Z,92.20
2023-04-13T02:55:53.841Z,92.20
2023-04-13T02:58:21.777Z,92.20
2023-04-13T03:00:49.411Z,92.20
2023-04-13T03:03:17.358Z,92.20
2023-04-13T03:05:44.900Z,92.20
2023-04-13T03:08:12.300Z,92.20
2023-04-13T03:10:41.805Z,92.20
2023-04-13T03:13:09.072Z,92.20
2023-04-13T03:15:36.547Z,92.20
2023-04-13T03:18:04.548Z,92.20
2023-04-13T03:20:31.900Z,92.20
2023-04-13T03:22:59.641Z,92.20
2023-04-13T03:25:27.051Z,92.20
2023-04-13T03:27:54.569Z,92.20
2023-04-13T03:30:21.844Z,92.20
2023-04-13T03:32:49.163Z,92.20
2023-04-13T03:35:16.524Z,92.20
2023-04-13T03:37:45.084Z,92.20
2023-04-13T03:40:12.519Z,92.20
2023-04-13T03:42:40.042Z,92.20
2023-04-13T03:45:07.986Z,92.20
2023-04-13T03:47:35.673Z,92.20
2023-04-13T03:50:04.143Z,92.20
2023-04-13T03:52:31.555Z,92.20
2023-04-13T03:54:58.907Z,92.20
2023-04-13T03:57:27.763Z,92.20
2023-04-13T03:59:55.055Z,92.20
2023-04-13T04:02:22.658Z,92.20
2023-04-13T04:04:50.324Z,92.20
2023-04-13T04:07:17.818Z,92.20
2023-04-13T04:09:45.350Z,92.20
2023-04-13T04:12:14.433Z,92.20
2023-04-13T04:14:42.052Z,92.20
2023-04-13T04:17:09.332Z,92.20
2023-04-13T04:19:37.846Z,92.20
2023-04-13T04:22:07.382Z,92.20
2023-04-13T04:24:35.545Z,92.20
2023-04-13T04:27:07.041Z,92.20
2023-04-13T04:29:36.656Z,92.20
2023-04-13T04:32:05.873Z,92.20
2023-04-13T04:34:33.686Z,92.20
2023-04-13T04:37:19.736Z,92.20
2023-04-13T04:39:48.334Z,92.20
2023-04-13T04:42:19.057Z,92.20
2023-04-13T04:44:53.242Z,92.20
2023-04-13T04:47:20.486Z,92.20
2023-04-13T04:49:48.557Z,92.20
2023-04-13T04:52:16.049Z,92.20
2023-04-13T04:54:43.508Z,92.20
2023-04-13T04:57:11.109Z,92.20
2023-04-13T04:59:39.131Z,92.20
2023-04-13T05:02:06.463Z,92.20
2023-04-13T05:04:34.004Z,92.20
2023-04-13T05:07:01.250Z,92.20
2023-04-13T05:09:28.780Z,92.20
2023-04-13T05:11:56.732Z,92.20
2023-04-13T05:14:24.112Z,92.20
2023-04-13T05:16:51.804Z,92.20
2023-04-13T05:19:19.629Z,92.20
2023-04-13T05:21:46.868Z,92.20
2023-04-13T05:24:14.266Z,92.20
2023-04-13T05:26:43.265Z,92.20
2023-04-13T05:29:10.633Z,92.20
2023-04-13T05:31:38.321Z,92.20
2023-04-13T05:34:05.900Z,92.20
2023-04-13T05:36:33.751Z,92.20
2023-04-13T05:39:02.190Z,92.20
2023-04-13T05:41:29.548Z,92.20
2023-04-13T05:43:56.869Z,92.20
2023-04-13T05:46:24.427Z,92.20
2023-04-13T05:48:51.889Z,92.20
2023-04-13T05:51:19.986Z,92.20
2023-04-13T05:53:47.832Z,92.20
2023-04-13T05:56:15.142Z,92.20
2023-04-13T05:58:42.390Z,92.20
2023-04-13T06:01:11.594Z,91.30
2023-04-13T06:03:39.422Z,90.80
2023-04-13T06:06:07.257Z,90.60
2023-04-13T06:08:34.898Z,90.50
2023-04-13T06:11:03.273Z,89.70
2023-04-13T06:13:31.956Z,89.70
2023-04-13T06:15:59.395Z,90.60
2023-04-13T06:18:27.714Z,90.90
2023-04-13T06:20:55.902Z,90.30
2023-04-13T06:23:23.586Z,90.20
2023-04-13T06:25:51.189Z,89.30
2023-04-13T06:28:18.576Z,89.60
2023-04-13T06:30:46.426Z,89.00
2023-04-13T06:33:15.560Z,90.00
2023-04-13T06:35:42.806Z,90.20
2023-04-13T06:38:10.380Z,89.40
2023-04-13T06:40:37.730Z,89.50
2023-04-13T06:43:06.211Z,89.70
2023-04-13T06:45:34.970Z,89.40
2023-04-13T06:48:03.253Z,90.00
2023-04-13T06:50:30.747Z,89.80
2023-04-13T06:53:00.111Z,90.40
2023-04-13T06:55:28.017Z,89.70
2023-04-13T06:57:55.272Z,89.20
2023-04-13T07:00:30.105Z,89.60
2023-04-13T07:02:58.892Z,89.70
2023-04-13T07:05:26.970Z,89.60
2023-04-13T07:07:54.189Z,88.80
2023-04-13T07:10:21.801Z,87.70
2023-04-13T07:12:49.133Z,86.70
2023-04-13T07:15:16.529Z,87.10
2023-04-13T07:17:43.958Z,87.10
2023-04-13T07:20:12.143Z,87.30
2023-04-13T07:22:39.729Z,88.00
2023-04-13T07:25:07.758Z,87.80
2023-04-13T07:27:35.048Z,88.10
2023-04-13T07:30:02.389Z,87.40
2023-04-13T07:32:31.362Z,85.90
2023-04-13T07:35:02.089Z,85.60
2023-04-13T07:37:29.991Z,85.60
2023-04-13T07:39:57.465Z,86.50
2023-04-13T07:42:25.540Z,87.10
2023-04-13T07:44:57.162Z,85.90
2023-04-13T07:47:24.675Z,85.70
2023-04-13T07:49:52.002Z,85.20
2023-04-13T07:52:20.523Z,85.40
2023-04-13T07:54:47.786Z,84.70
2023-04-13T07:57:15.692Z,84.50
2023-04-13T07:59:42.985Z,85.20
2023-04-13T08:02:10.359Z,86.50
2023-04-13T08:04:38.161Z,86.30
2023-04-13T08:07:07.471Z,86.00
2023-04-13T08:09:40.771Z,86.90
2023-04-13T08:12:09.073Z,87.50
2023-04-13T08:14:36.958Z,88.00
2023-04-13T08:17:06.368Z,88.20
2023-04-13T08:19:35.760Z,88.70
2023-04-13T08:22:03.467Z,86.60
2023-04-13T08:24:31.879Z,85.90
2023-04-13T08:26:59.776Z,86.30
2023-04-13T08:29:28.325Z,86.80
2023-04-13T08:31:57.219Z,81.00
2023-04-13T08:34:24.578Z,79.80
2023-04-13T08:36:51.888Z,79.40
2023-04-13T08:39:19.639Z,79.60
2023-04-13T08:41:48.385Z,79.00
2023-04-13T08:44:16.654Z,78.70
2023-04-13T08:46:47.475Z,80.10
2023-04-13T08:49:14.914Z,79.40
2023-04-13T08:51:45.995Z,79.40
2023-04-13T08:54:15.106Z,79.90
2023-04-13T08:56:47.171Z,81.00
2023-04-13T08:59:16.361Z,82.40
2023-04-13T09:01:47.745Z,81.60
2023-04-13T09:04:20.123Z,81.00
2023-04-13T09:06:51.637Z,81.00
2023-04-13T09:09:20.889Z,81.60
2023-04-13T09:11:50.892Z,81.10
2023-04-13T09:14:22.644Z,82.00
2023-04-13T09:16:50.782Z,81.70
2023-04-13T09:19:28.918Z,81.80
2023-04-13T09:21:56.350Z,82.10
2023-04-13T09:24:23.938Z,81.60
2023-04-13T09:26:51.490Z,82.50
2023-04-13T09:29:20.824Z,83.40
2023-04-13T09:31:48.767Z,84.20
2023-04-13T09:34:31.191Z,85.00
2023-04-13T09:37:01.123Z,85.80
2023-04-13T09:39:29.415Z,86.20
2023-04-13T09:41:58.426Z,86.50
2023-04-13T09:44:28.627Z,87.20
2023-04-13T09:47:04.101Z,87.60
2023-04-13T09:49:57.599Z,88.20
2023-04-13T09:52:25.494Z,88.90
2023-04-13T09:54:58.915Z,89.10
2023-04-13T09:57:30.836Z,89.90
2023-04-13T10:00:01.920Z,90.50
2023-04-13T10:02:30.337Z,91.10
2023-04-13T10:04:58.657Z,91.70
2023-04-13T10:07:30.212Z,92.20
2023-04-13T10:09:57.481Z,92.20
2023-04-13T10:12:27.368Z,92.20
2023-04-13T10:15:16.957Z,92.20
2023-04-13T10:18:06.928Z,92.20
2023-04-13T10:20:35.867Z,92.20
2023-04-13T10:23:05.839Z,92.20
2023-04-13T10:25:35.100Z,92.20
2023-04-13T10:28:03.619Z,92.20
2023-04-13T10:30:31.197Z,92.20
2023-04-13T10:33:06.891Z,92.20
2023-04-13T10:35:37.431Z,91.50
2023-04-13T10:38:05.655Z,90.70
2023-04-13T10:40:59.626Z,89.80
2023-04-13T10:43:31.570Z,90.60
2023-04-13T10:46:06.646Z,90.00
2023-04-13T10:48:34.385Z,88.90
2023-04-13T10:51:01.953Z,89.40
2023-04-13T10:53:31.365Z,88.90
2023-04-13T10:55:58.908Z,88.90
2023-04-13T10:58:33.316Z,89.70
2023-04-13T11:01:01.343Z,90.40
2023-04-13T11:03:29.665Z,91.00
2023-04-13T11:05:59.847Z,92.20
2023-04-13T11:08:28.356Z,91.90
2023-04-13T11:10:59.366Z,91.60
2023-04-13T11:13:27.141Z,92.20
2023-04-13T11:16:03.212Z,92.20
2023-04-13T11:18:30.741Z,92.10
2023-04-13T11:20:58.182Z,92.10
2023-04-13T11:23:25.658Z,92.20
2023-04-13T11:26:02.322Z,92.20
2023-04-13T11:28:44.006Z,92.20
2023-04-13T11:31:12.519Z,92.20
2023-04-13T11:33:40.752Z,92.20
2023-04-13T11:36:10.075Z,92.20
2023-04-13T11:38:41.576Z,92.20
2023-04-13T11:43:42.314Z,92.20
2023-04-13T11:46:13.011Z,92.20
2023-04-13T11:48:41.101Z,92.20
2023-04-13T11:51:09.209Z,92.20
2023-04-13T11:53:39.046Z,92.20
2023-04-13T11:56:07.242Z,92.20
2023-04-13T11:58:35.107Z,92.20
2023-04-13T12:03:56.897Z,92.20
2023-04-13T12:06:30.032Z,92.20
2023-04-13T12:09:11.473Z,92.20
2023-04-13T12:11:46.320Z,92.20
2023-04-13T12:19:30.057Z,92.20
2023-04-13T12:22:01.202Z,92.20
2023-04-13T12:24:33.806Z,92.20
2023-04-13T12:29:39.902Z,92.20
2023-04-13T12:32:14.586Z,92.20
2023-04-13T12:34:43.801Z,92.20
2023-04-13T12:37:15.465Z,92.20
2023-04-13T12:39:43.462Z,92.20
2023-04-13T12:42:10.902Z,92.20
2023-04-13T12:44:38.364Z,92.20
2023-04-13T12:47:07.374Z,92.20
2023-04-13T12:49:34.677Z,92.20
2023-04-13T12:52:01.963Z,92.20
2023-04-13T12:54:31.011Z,92.20
2023-04-13T12:56:59.994Z,92.20
2023-04-13T12:59:27.379Z,92.20
2023-04-13T13:01:54.841Z,92.20
2023-04-13T13:04:23.108Z,92.20
2023-04-13T13:06:50.438Z,92.20
2023-04-13T13:09:18.683Z,92.20
2023-04-13T13:11:46.306Z,92.20
2023-04-13T13:14:13.643Z,92.20
2023-04-13T13:16:41.603Z,92.20
2023-04-13T13:19:09.601Z,92.20
2023-04-13T13:21:38.039Z,92.20
2023-04-13T13:24:05.820Z,92.20
2023-04-13T13:27:00.067Z,92.20
2023-04-13T13:29:24.407Z,92.20
2023-04-13T13:31:51.944Z,92.20
2023-04-13T13:34:19.456Z,92.20
2023-04-13T13:36:47.027Z,92.20
2023-04-13T13:39:14.444Z,92.20
2023-04-13T13:41:41.913Z,92.20
2023-04-13T13:44:09.327Z,92.20
2023-04-13T13:46:36.972Z,92.20
2023-04-13T13:49:04.363Z,92.20
2023-04-13T13:51:32.975Z,92.20
2023-04-13T13:54:00.425Z,92.20
2023-04-13T13:56:27.947Z,92.20
2023-04-13T13:58:55.490Z,92.20
2023-04-13T14:01:23.217Z,92.20
2023-04-13T14:03:50.689Z,92.20
2023-04-13T14:06:18.219Z,92.20
2023-04-13T14:08:45.947Z,92.20
2023-04-13T14:11:13.288Z,92.20
2023-04-13T14:13:46.693Z,92.20
2023-04-13T14:16:14.328Z,92.20
2023-04-13T14:18:42.178Z,92.20
2023-04-13T14:21:09.813Z,92.20
2023-04-13T14:23:38.617Z,92.20
2023-04-13T14:26:06.487Z,92.20
2023-04-13T14:28:34.252Z,92.20
2023-04-13T14:31:01.616Z,92.20
2023-04-13T14:33:29.044Z,92.20
2023-04-13T14:35:56.570Z,92.20
2023-04-13T14:38:24.058Z,92.20
2023-04-13T14:40:52.366Z,92.20
2023-04-13T14:43:21.167Z,92.20
2023-04-13T14:45:52.717Z,92.20
2023-04-13T14:48:20.017Z,92.20
2023-04-13T14:50:47.656Z,92.20
2023-04-13T14:53:15.247Z,92.20
2023-04-13T14:55:42.578Z,92.20
2023-04-13T14:58:10.428Z,92.20
2023-04-13T15:00:40.592Z,92.20
2023-04-13T15:03:13.034Z,92.20
2023-04-13T15:05:45.402Z,92.20
2023-04-13T15:08:15.968Z,92.20
2023-04-13T15:10:43.607Z,92.20
2023-04-13T15:13:11.170Z,92.20
2023-04-13T15:15:40.570Z,92.20
2023-04-13T15:18:09.095Z,92.20
2023-04-13T15:20:36.657Z,92.20
2023-04-13T15:23:04.177Z,92.20
2023-04-13T15:25:31.511Z,92.20
2023-04-13T15:27:59.438Z,92.20
2023-04-13T15:30:28.705Z,92.20
2023-04-13T15:33:02.477Z,92.20
2023-04-13T15:35:31.480Z,92.20
2023-04-13T15:38:02.587Z,92.20
2023-04-13T15:40:33.380Z,92.20
2023-04-13T15:43:01.364Z,92.20
2023-04-13T15:45:28.803Z,92.20
2023-04-13T15:47:56.636Z,92.20
2023-04-13T15:50:25.185Z,92.20
2023-04-13T15:52:52.704Z,92.20
2023-04-13T15:55:20.675Z,92.20
2023-04-13T15:57:48.007Z,92.20
2023-04-13T16:00:16.882Z,92.20
2023-04-13T16:02:44.323Z,92.20
2023-04-13T16:05:12.630Z,92.20
2023-04-13T16:07:40.004Z,92.20
2023-04-13T16:10:08.432Z,92.20
2023-04-13T16:12:39.405Z,92.20
2023-04-13T16:15:07.239Z,92.20
2023-04-13T16:17:38.422Z,92.20
2023-04-13T16:20:11.326Z,92.20
2023-04-13T16:22:41.917Z,92.20
2023-04-13T16:25:16.067Z,92.20
2023-04-13T16:27:43.662Z,92.20
2023-04-13T16:30:16.317Z,92.20
2023-04-13T16:32:46.992Z,92.20
2023-04-13T16:35:14.475Z,92.20
2023-04-13T16:37:42.971Z,92.20
2023-04-13T16:40:11.510Z,92.20
2023-04-13T16:42:42.613Z,92.20
2023-04-13T16:45:14.686Z,92.20
2023-04-13T16:47:42.734Z,92.20
2023-04-13T16:50:12.137Z,92.20
2023-04-13T16:52:40.249Z,92.20
2023-04-13T16:55:08.121Z,92.20
2023-04-13T16:57:35.486Z,92.20
2023-04-13T17:00:07.831Z,92.20
2023-04-13T17:02:36.003Z,92.20
2023-04-13T17:05:04.156Z,92.20
2023-04-13T17:07:31.779Z,92.20
2023-04-13T17:09:58.989Z,92.20
2023-04-13T17:12:26.760Z,92.20
2023-04-13T17:14:58.854Z,92.20
2023-04-13T17:17:26.407Z,92.20
2023-04-13T17:19:54.749Z,92.20
2023-04-13T17:22:22.926Z,92.20
2023-04-13T17:24:50.625Z,92.20
2023-04-13T17:27:18.379Z,92.20
2023-04-13T17:29:45.945Z,92.20
2023-04-13T17:32:13.448Z,92.20
2023-04-13T17:34:41.481Z,92.20
2023-04-13T17:37:08.982Z,92.20
2023-04-13T17:39:36.693Z,92.20
2023-04-13T17:42:04.102Z,92.20
2023-04-13T17:44:31.642Z,92.20
2023-04-13T17:46:59.343Z,92.20
2023-04-13T17:49:30.092Z,92.20
2023-04-13T17:52:00.519Z,92.20
2023-04-13T17:54:30.950Z,92.20
2023-04-13T17:57:02.032Z,92.20
2023-04-13T17:59:29.416Z,92.20
2023-04-13T18:01:58.132Z,92.20
2023-04-13T18:04:25.840Z,92.20
2023-04-13T18:06:53.177Z,92.20
2023-04-13T18:09:20.841Z,92.20
2023-04-13T18:11:48.272Z,92.20
2023-04-13T18:14:16.291Z,92.20
2023-04-13T18:16:43.842Z,92.20
2023-04-13T18:19:11.533Z,92.20
2023-04-13T18:21:39.451Z,92.20
2023-04-13T18:24:07.214Z,92.20
2023-04-13T18:26:34.463Z,92.20
2023-04-13T18:29:02.499Z,92.20
2023-04-13T18:31:29.940Z,92.20
2023-04-13T18:33:57.910Z,92.20
2023-04-13T18:36:26.638Z,92.20
2023-04-13T18:38:55.083Z,92.20
2023-04-13T18:41:22.587Z,92.20
2023-04-13T18:43:50.519Z,92.20
2023-04-13T18:46:17.936Z,92.20
2023-04-13T18:48:45.559Z,92.20
2023-04-13T18:51:12.902Z,92.20
2023-04-13T18:53:40.371Z,92.20
2023-04-13T18:56:07.824Z,92.20
2023-04-13T18:58:35.193Z,92.20
2023-04-13T19:01:02.706Z,92.20
2023-04-13T19:03:30.203Z,92.20
2023-04-13T19:05:57.835Z,92.20
2023-04-13T19:08:25.197Z,92.20
2023-04-13T19:10:52.543Z,92.20
2023-04-13T19:13:20.225Z,92.20
2023-04-13T19:15:47.578Z,92.20
2023-04-13T19:18:15.007Z,92.20
2023-04-13T19:20:42.692Z,92.20
2023-04-13T19:23:09.960Z,92.20
2023-04-13T19:25:37.289Z,92.20
2023-04-13T19:28:06.401Z,92.20
2023-04-13T19:30:33.718Z,92.20
2023-04-13T19:33:01.142Z,92.20
2023-04-13T19:35:29.993Z,92.20
2023-04-13T19:37:57.434Z,92.20
2023-04-13T19:40:26.638Z,92.20
2023-04-13T19:42:53.997Z,92.20
2023-04-13T19:45:21.427Z,92.20
2023-04-13T19:47:49.061Z,92.20
2023-04-13T19:50:17.808Z,92.20
2023-04-13T19:52:47.704Z,92.20
2023-04-13T19:55:15.861Z,92.20
2023-04-13T19:57:43.359Z,92.20
2023-04-13T20:00:20.733Z,92.20
2023-04-13T20:02:50.266Z,92.20
2023-04-13T20:05:19.870Z,92.20
2023-04-13T20:07:47.266Z,92.20
2023-04-13T20:10:14.780Z,92.20
2023-04-13T20:12:42.173Z,92.20
2023-04-13T20:15:09.713Z,92.20
2023-04-13T20:17:37.057Z,92.20
2023-04-13T20:20:06.697Z,92.20
2023-04-13T20:22:34.061Z,92.20
2023-04-13T20:25:01.314Z,92.20
2023-04-13T20:27:30.080Z,92.20
2023-04-13T20:29:57.456Z,92.20
2023-04-13T20:32:24.820Z,92.20
2023-04-13T20:34:52.371Z,92.20
2023-04-13T20:37:20.439Z,92.20
2023-04-13T20:39:50.693Z,92.20
2023-04-13T20:42:19.792Z,92.20
2023-04-13T20:44:47.629Z,92.20
2023-04-13T20:47:15.422Z,92.20
2023-04-13T20:49:47.241Z,92.20
2023-04-13T20:52:14.425Z,92.20
2023-04-13T20:54:42.728Z,92.20
2023-04-13T20:57:10.784Z,92.20
2023-04-13T20:59:38.224Z,92.20
2023-04-13T21:02:05.853Z,92.20
2023-04-13T21:04:33.232Z,92.20
2023-04-13T21:07:02.892Z,92.20
2023-04-13T21:09:30.942Z,92.20
2023-04-13T21:11:58.610Z,92.20
2023-04-13T21:14:26.739Z,92.20
2023-04-13T21:16:54.954Z,92.20
2023-04-13T21:19:23.318Z,92.20
2023-04-13T21:21:50.639Z,92.20
2023-04-13T21:24:18.162Z,92.20
2023-04-13T21:26:45.432Z,92.20
2023-04-13T21:29:12.682Z,92.20
2023-04-13T21:31:40.185Z,92.20
2023-04-13T21:34:07.673Z,92.20
2023-04-13T21:39:05.061Z,92.20
2023-04-13T21:41:32.302Z,92.20
2023-04-13T21:43:59.662Z,92.20
2023-04-13T21:46:28.212Z,92.20
2023-04-13T21:48:55.793Z,92.20
2023-04-13T21:51:23.243Z,92.20
2023-04-13T21:53:52.275Z,92.20
2023-04-13T21:56:19.491Z,92.20
2023-04-13T21:58:49.852Z,92.20
2023-04-13T22:01:17.104Z,92.20
2023-04-13T22:03:47.762Z,92.20
2023-04-13T22:06:15.465Z,92.20
2023-04-13T22:08:42.810Z,92.20
2023-04-13T22:11:10.200Z,92.20
2023-04-13T22:13:37.568Z,92.20
2023-04-13T22:16:05.113Z,92.20
2023-04-13T22:18:32.420Z,92.20
2023-04-13T22:21:00.358Z,92.20
2023-04-13T22:23:27.712Z,92.20
2023-04-13T22:26:01.899Z,92.20
2023-04-13T22:28:30.400Z,92.20
2023-04-13T22:31:06.478Z,92.20
2023-04-13T22:33:36.417Z,92.20
2023-04-13T22:36:16.784Z,92.20
2023-04-13T22:38:44.103Z,92.20
2023-04-13T22:41:11.524Z,92.20
2023-04-13T22:43:40.352Z,92.20
2023-04-13T22:46:08.278Z,92.20
2023-04-13T22:48:35.604Z,92.20
2023-04-13T22:51:03.846Z,92.20
2023-04-13T22:53:31.583Z,92.20
2023-04-13T22:56:00.912Z,92.20
2023-04-13T22:58:28.666Z,92.20
2023-04-13T23:00:56.046Z,92.20
2023-04-13T23:03:23.728Z,92.20
2023-04-13T23:05:51.275Z,92.20
2023-04-13T23:08:18.539Z,92.20
2023-04-13T23:10:45.818Z,92.20
2023-04-13T23:13:13.223Z,92.20
2023-04-13T23:15:40.665Z,92.20
2023-04-13T23:18:08.038Z,92.20
2023-04-13T23:20:35.399Z,92.20
2023-04-13T23:23:02.814Z,92.20
2023-04-13T23:25:30.144Z,92.20
2023-04-13T23:27:57.604Z,92.20
2023-04-13T23:30:24.873Z,92.20
2023-04-13T23:32:52.398Z,92.20
2023-04-13T23:35:19.726Z,92.20
2023-04-13T23:37:47.058Z,92.20
2023-04-13T23:40:14.420Z,92.20
2023-04-13T23:42:42.120Z,92.20
2023-04-13T23:45:09.690Z,92.20
2023-04-13T23:47:38.204Z,92.20
2023-04-13T23:50:06.327Z,92.20
2023-04-13T23:52:33.727Z,92.20
2023-04-13T23:55:01.046Z,92.20
2023-04-13T23:57:28.363Z,92.20
2023-04-13T23:59:59.284Z,92.20
